createdAt,value
2022-11-10T00:02:09.814Z,100779.06
2022-11-10T00:04:37.631Z,100776.28
2022-11-10T00:07:05.361Z,100771.06
2022-11-10T00:09:34.814Z,100781.63
2022-11-10T00:12:02.505Z,100791.19
2022-11-10T00:14:47.774Z,100786.72
2022-11-10T00:17:15.601Z,100778.59
2022-11-10T00:19:43.242Z,100783.94
2022-11-10T00:22:10.948Z,100795.56
2022-11-10T00:24:40.035Z,100791.31
2022-11-10T00:27:07.712Z,100792.38
2022-11-10T00:29:36.118Z,100798.66
2022-11-10T00:32:03.819Z,100795.03
2022-11-10T00:34:31.579Z,100798.00
2022-11-10T00:36:59.381Z,100803.66
2022-11-10T00:39:27.097Z,100799.63
2022-11-10T00:41:56.297Z,100806.97
2022-11-10T00:44:24.026Z,100808.16
2022-11-10T00:46:51.764Z,100817.53
2022-11-10T00:49:19.426Z,100818.94
2022-11-10T00:51:47.172Z,100817.31
2022-11-10T00:54:14.886Z,100824.91
2022-11-10T00:56:42.593Z,100820.13
2022-11-10T00:59:11.695Z,100826.84
2022-11-10T01:01:39.439Z,100835.25
2022-11-10T01:04:07.214Z,100836.63
2022-11-10T01:06:34.999Z,100842.44
2022-11-10T01:09:02.714Z,100851.94
2022-11-10T01:11:30.355Z,100853.19
2022-11-10T01:13:58.584Z,100865.06
2022-11-10T01:16:29.050Z,100863.59
2022-11-10T01:18:59.466Z,100872.72
2022-11-10T01:21:28.042Z,100872.91
2022-11-10T01:23:56.517Z,100882.03
2022-11-10T01:26:24.634Z,100882.25
2022-11-10T01:28:52.646Z,100877.25
2022-11-10T01:31:22.229Z,100894.34
2022-11-10T01:33:53.549Z,100895.78
2022-11-10T01:36:21.223Z,100902.34
2022-11-10T01:38:48.920Z,100899.56
2022-11-10T01:41:16.932Z,100906.03
2022-11-10T01:43:44.666Z,100897.47
2022-11-10T01:46:13.805Z,100907.34
2022-11-10T01:48:45.476Z,100909.44
2022-11-10T01:51:20.233Z,100919.50
2022-11-10T01:53:53.245Z,100915.13
2022-11-10T01:56:22.293Z,100914.38
2022-11-10T01:58:56.252Z,100918.19
2022-11-10T02:01:25.027Z,100920.84
2022-11-10T02:03:55.174Z,100918.31
2022-11-10T02:06:27.809Z,100916.66
2022-11-10T02:08:56.789Z,100926.72
2022-11-10T02:11:25.522Z,100928.41
2022-11-10T02:13:54.705Z,100926.59
2022-11-10T02:16:22.965Z,100924.91
2022-11-10T02:18:50.733Z,100926.72
2022-11-10T02:21:21.929Z,100925.06
2022-11-10T02:23:51.799Z,100925.06
2022-11-10T02:26:24.113Z,100933.91
2022-11-10T02:28:51.868Z,100936.75
2022-11-10T02:31:19.561Z,100940.53
2022-11-10T02:33:47.255Z,100948.59
2022-11-10T02:36:14.962Z,100953.13
2022-11-10T02:38:44.099Z,100947.06
2022-11-10T02:41:11.773Z,100949.06
2022-11-10T02:43:39.920Z,100958.16
2022-11-10T02:46:07.844Z,100959.75
2022-11-10T02:48:35.582Z,100958.34
2022-11-10T02:51:03.252Z,100957.59
2022-11-10T02:53:30.955Z,100959.47
2022-11-10T02:56:00.233Z,100960.50
2022-11-10T02:58:27.930Z,100958.03
2022-11-10T03:00:55.681Z,100962.50
2022-11-10T03:03:23.724Z,100970.63
2022-11-10T03:05:51.691Z,100960.94
2022-11-10T03:08:19.364Z,100965.41
2022-11-10T03:10:47.027Z,100957.44
2022-11-10T03:13:16.048Z,100965.50
2022-11-10T03:15:43.680Z,100968.72
2022-11-10T03:18:11.350Z,100973.13
2022-11-10T03:20:39.144Z,100972.91
2022-11-10T03:23:07.231Z,100968.56
2022-11-10T03:25:35.000Z,100971.09
2022-11-10T03:28:02.746Z,100977.28
2022-11-10T03:30:31.787Z,100971.97
2022-11-10T03:32:59.442Z,100977.16
2022-11-10T03:35:27.348Z,100987.63
2022-11-10T03:37:55.054Z,100987.31
2022-11-10T03:40:23.085Z,100989.72
2022-11-10T03:42:50.743Z,100999.28
2022-11-10T03:45:18.536Z,101005.28
2022-11-10T03:47:49.183Z,101016.44
2022-11-10T03:50:17.801Z,101022.50
2022-11-10T03:52:46.884Z,101020.53
2022-11-10T03:55:16.702Z,101023.03
2022-11-10T03:57:45.009Z,101033.44
2022-11-10T04:00:15.008Z,101040.47
2022-11-10T04:02:42.827Z,101033.16
2022-11-10T04:05:29.367Z,101041.03
2022-11-10T04:08:18.945Z,101043.69
2022-11-10T04:10:47.231Z,101053.53
2022-11-10T04:13:32.547Z,101047.66
2022-11-10T04:16:00.237Z,101057.53
2022-11-10T04:18:29.597Z,101064.03
2022-11-10T04:21:00.762Z,101055.31
2022-11-10T04:23:31.048Z,101062.59
2022-11-10T04:26:18.533Z,101055.84
2022-11-10T04:28:47.558Z,101064.09
2022-11-10T04:31:16.312Z,101070.69
2022-11-10T04:33:44.658Z,101076.19
2022-11-10T04:36:16.593Z,101079.63
2022-11-10T04:38:44.276Z,101085.00
2022-11-10T04:41:12.680Z,101088.50
2022-11-10T04:43:40.795Z,101088.56
2022-11-10T04:46:11.808Z,101084.31
2022-11-10T04:48:39.616Z,101093.03
2022-11-10T04:51:08.448Z,101090.47
2022-11-10T04:53:37.600Z,101095.00
2022-11-10T04:56:05.519Z,101095.88
2022-11-10T04:58:33.341Z,101095.88
2022-11-10T05:01:01.071Z,101085.28
2022-11-10T05:03:28.896Z,101081.75
2022-11-10T05:05:56.608Z,101083.47
2022-11-10T05:08:24.292Z,101086.03
2022-11-10T05:10:53.308Z,101097.50
2022-11-10T05:13:21.387Z,101102.03
2022-11-10T05:15:49.403Z,101103.91
2022-11-10T05:18:17.139Z,101112.03
2022-11-10T05:20:44.868Z,101124.63
2022-11-10T05:23:30.008Z,101128.22
2022-11-10T05:25:59.054Z,101123.00
2022-11-10T05:28:26.724Z,101122.44
2022-11-10T05:30:54.448Z,101128.03
2022-11-10T05:33:22.571Z,101145.06
2022-11-10T05:35:51.030Z,101150.72
2022-11-10T05:38:18.806Z,101156.22
2022-11-10T05:40:46.488Z,101159.13
2022-11-10T05:43:16.335Z,101169.88
2022-11-10T05:45:44.121Z,101171.91
2022-11-10T05:48:11.883Z,101186.88
2022-11-10T05:50:39.586Z,101193.38
2022-11-10T05:53:07.339Z,101191.34
2022-11-10T05:55:35.467Z,101200.16
2022-11-10T05:58:03.172Z,101195.75
2022-11-10T06:00:33.904Z,101204.50
2022-11-10T06:03:03.591Z,101201.84
2022-11-10T06:05:32.997Z,101195.53
2022-11-10T06:08:01.089Z,101209.56
2022-11-10T06:10:29.441Z,101215.56
2022-11-10T06:12:57.544Z,101210.25
2022-11-10T06:15:26.062Z,101211.97
2022-11-10T06:17:55.608Z,101205.72
2022-11-10T06:20:24.152Z,101203.84
2022-11-10T06:23:03.102Z,101231.22
2022-11-10T06:25:31.328Z,101241.88
2022-11-10T06:27:59.685Z,101252.50
2022-11-10T06:30:28.578Z,101253.59
2022-11-10T06:32:57.723Z,101264.13
2022-11-10T06:35:25.971Z,101273.97
2022-11-10T06:38:01.925Z,101276.69
2022-11-10T06:40:30.256Z,101284.63
2022-11-10T06:42:58.281Z,101287.44
2022-11-10T06:45:28.465Z,101299.06
2022-11-10T06:48:05.492Z,101308.91
2022-11-10T06:50:33.862Z,101319.50
2022-11-10T06:53:02.048Z,101323.09
2022-11-10T06:55:30.000Z,101317.88
2022-11-10T06:57:58.648Z,101333.00
2022-11-10T07:00:27.375Z,101332.22
2022-11-10T07:03:07.126Z,101342.97
2022-11-10T07:05:35.806Z,101343.13
2022-11-10T07:08:04.776Z,101341.66
2022-11-10T07:10:32.840Z,101350.31
2022-11-10T07:13:01.032Z,101342.13
2022-11-10T07:15:28.989Z,101356.06
2022-11-10T07:17:57.011Z,101339.91
2022-11-10T07:20:26.163Z,101341.41
2022-11-10T07:22:58.779Z,101343.88
2022-11-10T07:25:26.560Z,101348.78
2022-11-10T07:27:55.062Z,101345.81
2022-11-10T07:30:22.706Z,101350.72
2022-11-10T07:32:58.985Z,101344.31
2022-11-10T07:35:28.609Z,101355.47
2022-11-10T07:37:56.382Z,101364.97
2022-11-10T07:40:24.462Z,101370.88
2022-11-10T07:42:52.147Z,101367.13
2022-11-10T07:45:19.916Z,101378.28
2022-11-10T07:47:47.593Z,101385.91
2022-11-10T07:50:15.347Z,101388.22
2022-11-10T07:52:44.403Z,101391.47
2022-11-10T07:55:12.241Z,101394.75
2022-11-10T07:57:39.850Z,101398.00
2022-11-10T08:00:08.859Z,101400.41
2022-11-10T08:02:36.532Z,101403.75
2022-11-10T08:05:04.649Z,101415.00
2022-11-10T08:07:32.474Z,101413.72
2022-11-10T08:10:01.630Z,101418.53
2022-11-10T08:12:32.680Z,101421.63
2022-11-10T08:15:01.316Z,101422.81
2022-11-10T08:17:29.015Z,101426.59
2022-11-10T08:19:56.716Z,101435.66
2022-11-10T08:22:24.367Z,101430.56
2022-11-10T08:24:52.094Z,101435.09
2022-11-10T08:27:21.353Z,101435.91
2022-11-10T08:29:49.080Z,101442.53
2022-11-10T08:32:16.777Z,101446.41
2022-11-10T08:34:44.427Z,101443.78
2022-11-10T08:37:12.140Z,101456.16
2022-11-10T08:39:40.429Z,101461.13
2022-11-10T08:42:08.118Z,101456.38
2022-11-10T08:44:37.175Z,101450.09
2022-11-10T08:47:05.059Z,101458.31
2022-11-10T08:49:32.746Z,101456.47
2022-11-10T08:52:00.799Z,101461.50
2022-11-10T08:54:28.515Z,101458.09
2022-11-10T08:56:56.271Z,101452.84
2022-11-10T08:59:23.952Z,101465.63
2022-11-10T09:01:53.074Z,101468.97
2022-11-10T09:04:20.864Z,101463.00
2022-11-10T09:06:48.621Z,101463.28
2022-11-10T09:09:16.407Z,101470.59
2022-11-10T09:11:44.198Z,101473.91
2022-11-10T09:14:11.999Z,101480.59
2022-11-10T09:16:39.767Z,101484.00
2022-11-10T09:19:08.793Z,101487.91
2022-11-10T09:21:36.643Z,101500.06
2022-11-10T09:24:04.559Z,101502.50
2022-11-10T09:26:33.850Z,101505.13
2022-11-10T09:29:01.552Z,101499.97
2022-11-10T09:31:29.247Z,101508.75
2022-11-10T09:33:56.966Z,101502.72
2022-11-10T09:36:26.031Z,101515.75
2022-11-10T09:38:53.932Z,101522.06
2022-11-10T09:41:21.721Z,101519.66
2022-11-10T09:44:02.569Z,101518.50
2022-11-10T09:46:34.956Z,101515.75
2022-11-10T09:49:10.813Z,101519.53
2022-11-10T09:51:48.187Z,101518.19
2022-11-10T09:54:28.795Z,101513.38
2022-11-10T09:57:00.362Z,101525.28
2022-11-10T09:59:29.477Z,101521.84
2022-11-10T10:02:03.546Z,101523.47
2022-11-10T10:04:51.917Z,101533.81
2022-11-10T10:07:26.256Z,101530.41
2022-11-10T10:10:01.319Z,101534.25
2022-11-10T10:12:46.352Z,101528.53
2022-11-10T10:15:26.001Z,101535.97
2022-11-10T10:18:06.400Z,101534.09
2022-11-10T10:20:43.053Z,101534.50
2022-11-10T10:23:35.227Z,101538.25
2022-11-10T10:26:14.718Z,101539.19
2022-11-10T10:28:48.561Z,101529.78
2022-11-10T10:31:20.378Z,101523.97
2022-11-10T10:33:49.013Z,101529.72
2022-11-10T10:36:20.905Z,101529.06
2022-11-10T10:38:53.737Z,101525.44
2022-11-10T10:41:25.482Z,101525.91
2022-11-10T10:43:55.627Z,101531.41
2022-11-10T10:46:28.326Z,101524.94
2022-11-10T10:49:30.147Z,101525.94
2022-11-10T10:52:07.702Z,101520.56
2022-11-10T10:54:38.268Z,101520.88
2022-11-10T10:57:21.329Z,101524.84
2022-11-10T10:59:49.356Z,101518.94
2022-11-10T11:02:28.956Z,101527.06
2022-11-10T11:05:12.742Z,101528.31
2022-11-10T11:07:40.760Z,101527.53
2022-11-10T11:10:21.578Z,101523.25
2022-11-10T11:12:49.291Z,101527.47
2022-11-10T11:15:26.417Z,101528.59
2022-11-10T11:17:58.769Z,101523.81
2022-11-10T11:20:33.575Z,101521.19
2022-11-10T11:23:08.738Z,101523.91
2022-11-10T11:25:41.323Z,101529.25
2022-11-10T11:28:14.642Z,101517.25
2022-11-10T11:30:52.883Z,101513.31
2022-11-10T11:33:33.656Z,101519.59
2022-11-10T11:36:09.396Z,101527.72
2022-11-10T11:38:49.267Z,101525.28
2022-11-10T11:41:33.563Z,101522.00
2022-11-10T11:44:20.258Z,101527.00
2022-11-10T11:46:57.336Z,101522.59
2022-11-10T11:49:43.158Z,101524.53
2022-11-10T11:52:26.696Z,101525.94
2022-11-10T11:55:13.279Z,101536.63
2022-11-10T11:57:55.057Z,101536.25
2022-11-10T12:00:23.259Z,101539.34
2022-11-10T12:03:15.088Z,101541.16
2022-11-10T12:05:56.635Z,101547.66
2022-11-10T12:08:34.062Z,101544.69
2022-11-10T12:11:11.381Z,101541.22
2022-11-10T12:13:49.062Z,101538.16
2022-11-10T12:16:22.147Z,101542.50
2022-11-10T12:18:57.179Z,101542.72
2022-11-10T12:21:29.337Z,101543.69
2022-11-10T12:24:11.307Z,101536.41
2022-11-10T12:26:46.590Z,101537.88
2022-11-10T12:29:22.912Z,101532.72
2022-11-10T12:31:56.297Z,101532.97
2022-11-10T12:34:33.044Z,101533.25
2022-11-10T12:37:05.044Z,101531.63
2022-11-10T12:39:42.629Z,101533.53
2022-11-10T12:42:16.538Z,101530.19
2022-11-10T12:44:59.546Z,101535.41
2022-11-10T12:47:31.380Z,101545.09
2022-11-10T12:50:19.405Z,101548.03
2022-11-10T12:52:53.159Z,101550.78
2022-11-10T12:55:22.349Z,101555.09
2022-11-10T12:57:50.700Z,101555.63
2022-11-10T13:00:29.046Z,101550.72
2022-11-10T13:02:58.933Z,101554.91
2022-11-10T13:05:30.364Z,101554.41
2022-11-10T13:08:25.535Z,101554.44
2022-11-10T13:10:56.794Z,101551.16
2022-11-10T13:13:25.878Z,101553.59
2022-11-10T13:15:59.674Z,101559.00
2022-11-10T13:19:00.253Z,101559.22
2022-11-10T13:22:01.323Z,101560.25
2022-11-10T13:24:30.850Z,101570.19
2022-11-10T13:27:00.341Z,101571.22
2022-11-10T13:29:55.163Z,101577.84
2022-11-10T13:32:32.356Z,101576.13
2022-11-10T13:35:49.967Z,101578.81
2022-11-10T13:38:38.574Z,101571.44
2022-11-10T13:41:33.788Z,101574.66
2022-11-10T13:44:03.575Z,101569.47
2022-11-10T13:46:36.719Z,101575.06
2022-11-10T13:49:37.373Z,101570.81
2022-11-10T13:52:14.993Z,101575.34
2022-11-10T13:54:59.157Z,101588.13
2022-11-10T13:57:31.117Z,101581.69
2022-11-10T14:00:01.489Z,101592.91
2022-11-10T14:02:57.067Z,101587.56
2022-11-10T14:06:04.398Z,101583.03
2022-11-10T14:08:49.562Z,101583.31
2022-11-10T14:11:26.556Z,101595.22
2022-11-10T14:14:00.180Z,101587.06
2022-11-10T14:16:32.056Z,101586.75
2022-11-10T14:19:05.540Z,101589.31
2022-11-10T14:21:45.029Z,101595.31
2022-11-10T14:24:20.922Z,101593.94
2022-11-10T14:26:53.147Z,101592.28
2022-11-10T14:29:35.812Z,101591.47
2022-11-10T14:32:06.894Z,101591.84
2022-11-10T14:34:46.386Z,101603.44
2022-11-10T14:37:18.739Z,101605.66
2022-11-10T14:39:48.469Z,101600.66
2022-11-10T14:42:22.425Z,101605.44
2022-11-10T14:44:50.268Z,101606.41
2022-11-10T14:47:25.994Z,101608.81
2022-11-10T14:50:18.007Z,101607.75
2022-11-10T14:52:48.587Z,101614.44
2022-11-10T14:55:21.450Z,101621.28
2022-11-10T14:57:51.783Z,101618.09
2022-11-10T15:00:28.407Z,101615.66
2022-11-10T15:02:58.116Z,101619.19
2022-11-10T15:05:26.719Z,101622.25
2022-11-10T15:07:58.111Z,101627.09
2022-11-10T15:10:29.280Z,101628.75
2022-11-10T15:13:05.265Z,101627.38
2022-11-10T15:15:33.320Z,101633.97
2022-11-10T15:18:01.087Z,101633.44
2022-11-10T15:20:40.661Z,101629.28
2022-11-10T15:23:23.477Z,101635.84
2022-11-10T15:25:53.405Z,101633.66
2022-11-10T15:28:30.511Z,101633.16
2022-11-10T15:31:00.795Z,101625.59
2022-11-10T15:33:31.067Z,101629.44
2022-11-10T15:36:15.102Z,101630.34
2022-11-10T15:38:42.829Z,101638.22
2022-11-10T15:41:15.040Z,101633.56
2022-11-10T15:43:42.926Z,101639.47
2022-11-10T15:46:18.971Z,101639.28
2022-11-10T15:48:49.177Z,101641.56
2022-11-10T15:51:25.609Z,101635.91
2022-11-10T15:53:54.520Z,101641.81
2022-11-10T15:56:25.584Z,101648.53
2022-11-10T15:59:00.647Z,101656.25
2022-11-10T16:01:30.380Z,101662.97
2022-11-10T16:03:58.217Z,101663.66
2022-11-10T16:06:26.849Z,101665.03
2022-11-10T16:08:54.768Z,101669.97
2022-11-10T16:11:24.703Z,101668.91
2022-11-10T16:13:54.001Z,101665.75
2022-11-10T16:16:24.020Z,101675.94
2022-11-10T16:18:52.500Z,101679.78
2022-11-10T16:21:22.440Z,101676.78
2022-11-10T16:23:50.367Z,101679.97
2022-11-10T16:26:22.196Z,101677.81
2022-11-10T16:28:51.786Z,101675.75
2022-11-10T16:31:21.902Z,101686.09
2022-11-10T16:33:50.622Z,101687.56
2022-11-10T16:36:25.308Z,101681.88
2022-11-10T16:38:54.006Z,101683.97
2022-11-10T16:41:23.018Z,101687.13
2022-11-10T16:43:52.172Z,101694.56
2022-11-10T16:46:24.166Z,101695.81
2022-11-10T16:48:54.425Z,101697.38
2022-11-10T16:51:29.715Z,101695.09
2022-11-10T16:53:59.521Z,101691.19
2022-11-10T16:56:27.445Z,101698.94
2022-11-10T16:58:56.655Z,101702.09
2022-11-10T17:01:29.171Z,101713.91
2022-11-10T17:04:00.150Z,101717.81
2022-11-10T17:06:30.033Z,101730.56
2022-11-10T17:09:02.665Z,101724.84
2022-11-10T17:11:30.444Z,101727.03
2022-11-10T17:13:59.571Z,101735.78
2022-11-10T17:16:30.823Z,101736.22
2022-11-10T17:19:02.093Z,101731.28
2022-11-10T17:21:33.198Z,101733.53
2022-11-10T17:24:01.743Z,101737.41
2022-11-10T17:26:30.763Z,101738.56
2022-11-10T17:28:59.918Z,101738.22
2022-11-10T17:31:27.745Z,101734.13
2022-11-10T17:33:56.613Z,101739.72
2022-11-10T17:36:24.972Z,101732.84
2022-11-10T17:38:53.595Z,101743.75
2022-11-10T17:41:22.016Z,101747.88
2022-11-10T17:43:49.778Z,101750.38
2022-11-10T17:46:19.007Z,101752.63
2022-11-10T17:48:47.824Z,101752.09
2022-11-10T17:51:20.649Z,101749.19
2022-11-10T17:53:50.512Z,101753.19
2022-11-10T17:56:18.563Z,101761.69
2022-11-10T17:58:46.827Z,101756.44
2022-11-10T18:01:18.903Z,101757.47
2022-11-10T18:03:47.862Z,101755.69
2022-11-10T18:06:16.114Z,101753.88
2022-11-10T18:08:44.437Z,101743.56
2022-11-10T18:11:13.927Z,101752.72
2022-11-10T18:13:42.362Z,101755.72
2022-11-10T18:16:11.935Z,101765.06
2022-11-10T18:18:41.719Z,101755.75
2022-11-10T18:21:10.609Z,101762.28
2022-11-10T18:23:38.475Z,101771.50
2022-11-10T18:26:07.462Z,101770.97
2022-11-10T18:28:35.773Z,101768.78
2022-11-10T18:31:07.795Z,101773.25
2022-11-10T18:33:36.874Z,101774.94
2022-11-10T18:36:06.515Z,101771.59
2022-11-10T18:38:34.318Z,101768.13
2022-11-10T18:41:25.630Z,101770.91
2022-11-10T18:43:53.645Z,101762.22
2022-11-10T18:46:21.443Z,101763.78
2022-11-10T18:48:49.516Z,101764.81
2022-11-10T18:51:18.647Z,101764.25
2022-11-10T18:53:46.594Z,101771.81
2022-11-10T18:56:14.468Z,101771.50
2022-11-10T18:58:42.553Z,101775.41
2022-11-10T19:01:11.894Z,101770.31
2022-11-10T19:03:39.669Z,101776.66
2022-11-10T19:06:07.779Z,101776.56
2022-11-10T19:08:37.248Z,101769.63
2022-11-10T19:11:07.232Z,101775.16
2022-11-10T19:13:35.565Z,101776.06
2022-11-10T19:16:05.776Z,101782.50
2022-11-10T19:18:34.139Z,101776.28
2022-11-10T19:21:05.778Z,101785.03
2022-11-10T19:23:33.745Z,101789.56
2022-11-10T19:26:03.702Z,101789.56
2022-11-10T19:28:31.488Z,101795.72
2022-11-10T19:31:02.460Z,101814.19
2022-11-10T19:33:31.104Z,101826.53
2022-11-10T19:36:03.767Z,101821.22
2022-11-10T19:38:32.217Z,101823.28
2022-11-10T19:41:03.852Z,101818.88
2022-11-10T19:43:33.064Z,101821.72
2022-11-10T19:46:03.308Z,101818.03
2022-11-10T19:48:32.186Z,101819.84
2022-11-10T19:51:01.274Z,101829.81
2022-11-10T19:53:29.679Z,101837.88
2022-11-10T19:56:01.633Z,101837.28
2022-11-10T19:58:30.188Z,101846.38
2022-11-10T20:01:01.983Z,101865.84
2022-11-10T20:03:30.675Z,101870.38
2022-11-10T20:05:59.849Z,101867.34
2022-11-10T20:08:28.285Z,101875.56
2022-11-10T20:10:59.224Z,101887.44
2022-11-10T20:13:27.076Z,101883.81
2022-11-10T20:15:54.935Z,101876.59
2022-11-10T20:18:24.163Z,101871.16
2022-11-10T20:20:52.076Z,101867.91
2022-11-10T20:23:20.176Z,101878.16
2022-11-10T20:25:48.074Z,101874.81
2022-11-10T20:28:16.017Z,101876.16
2022-11-10T20:30:45.373Z,101868.19
2022-11-10T20:33:13.384Z,101861.91
2022-11-10T20:35:43.968Z,101860.13
2022-11-10T20:38:12.263Z,101856.69
2022-11-10T20:40:44.749Z,101856.69
2022-11-10T20:43:14.021Z,101862.97
2022-11-10T20:45:42.473Z,101866.41
2022-11-10T20:48:10.260Z,101860.13
2022-11-10T20:50:42.121Z,101864.91
2022-11-10T20:53:09.902Z,101859.78
2022-11-10T20:55:53.226Z,101853.91
2022-11-10T20:58:21.577Z,101854.22
2022-11-10T21:00:49.355Z,101860.56
2022-11-10T21:03:17.136Z,101866.72
2022-11-10T21:05:46.238Z,101872.91
2022-11-10T21:08:13.995Z,101865.94
2022-11-10T21:10:41.831Z,101872.22
2022-11-10T21:13:08.598Z,101875.94
2022-11-10T21:15:39.036Z,101880.28
2022-11-10T21:18:06.769Z,101866.00
2022-11-10T21:20:35.210Z,101867.53
2022-11-10T21:23:04.386Z,101873.81
2022-11-10T21:25:32.518Z,101874.81
2022-11-10T21:28:00.269Z,101876.78
2022-11-10T21:30:28.181Z,101876.44
2022-11-10T21:32:55.909Z,101877.56
2022-11-10T21:35:23.781Z,101871.66
2022-11-10T21:37:51.597Z,101865.88
2022-11-10T21:40:20.720Z,101871.41
2022-11-10T21:42:48.490Z,101866.03
2022-11-10T21:45:17.991Z,101870.38
2022-11-10T21:47:45.775Z,101858.84
2022-11-10T21:50:13.597Z,101856.34
2022-11-10T21:52:41.444Z,101848.63
2022-11-10T21:55:10.262Z,101851.34
2022-11-10T21:57:39.407Z,101852.50
2022-11-10T22:00:08.435Z,101866.91
2022-11-10T22:02:36.219Z,101859.22
2022-11-10T22:05:04.579Z,101859.22
2022-11-10T22:07:32.583Z,101856.56
2022-11-10T22:10:17.825Z,101851.28
2022-11-10T22:13:04.865Z,101848.63
2022-11-10T22:15:49.948Z,101852.09
2022-11-10T22:18:36.643Z,101856.38
2022-11-10T22:21:05.164Z,101856.44
2022-11-10T22:23:50.813Z,101861.72
2022-11-10T22:26:19.133Z,101876.75
2022-11-10T22:28:48.850Z,101880.50
2022-11-10T22:31:16.607Z,101879.78
2022-11-10T22:33:44.680Z,101877.75
2022-11-10T22:36:14.381Z,101886.22
2022-11-10T22:38:42.884Z,101888.25
2022-11-10T22:41:32.211Z,101891.97
2022-11-10T22:44:04.794Z,101895.59
2022-11-10T22:46:34.193Z,101895.53
2022-11-10T22:49:02.331Z,101898.16
2022-11-10T22:51:31.615Z,101901.63
2022-11-10T22:54:00.195Z,101897.53
2022-11-10T22:56:28.537Z,101884.53
2022-11-10T22:58:59.905Z,101876.63
2022-11-10T23:01:29.557Z,101882.81
2022-11-10T23:03:59.073Z,101873.16
2022-11-10T23:06:27.125Z,101869.66
2022-11-10T23:08:55.404Z,101873.16
2022-11-10T23:11:25.479Z,101874.94
2022-11-10T23:13:53.486Z,101882.13
2022-11-10T23:16:23.124Z,101869.81
2022-11-10T23:18:54.284Z,101876.78
2022-11-10T23:21:23.911Z,101873.25
2022-11-10T23:23:53.523Z,101874.00
2022-11-10T23:26:23.090Z,101883.75
2022-11-10T23:28:52.336Z,101883.75
2022-11-10T23:31:21.457Z,101892.69
2022-11-10T23:33:53.426Z,101888.53
2022-11-10T23:36:22.708Z,101880.72
2022-11-10T23:38:50.664Z,101875.44
2022-11-10T23:41:20.226Z,101866.72
2022-11-10T23:43:48.780Z,101868.63
2022-11-10T23:46:16.948Z,101870.47
2022-11-10T23:48:44.989Z,101876.84
2022-11-10T23:51:15.334Z,101882.66
2022-11-10T23:53:43.433Z,101886.16
2022-11-10T23:56:13.739Z,101885.94
2022-11-10T23:58:41.685Z,101888.69
